createdAt,value
2018-02-25T00:00:47.606Z,72.81
2018-02-25T00:01:47.452Z,72.87
2018-02-25T00:03:40.303Z,72.81
2018-02-25T00:04:40.202Z,72.87
2018-02-25T00:06:33.061Z,73.15
2018-02-25T00:07:32.953Z,72.58
2018-02-25T00:09:25.809Z,72.58
2018-02-25T00:10:25.686Z,72.49
2018-02-25T00:12:18.592Z,72.49
2018-02-25T00:13:18.439Z,72.58
2018-02-25T00:15:11.333Z,72.87
2018-02-25T00:16:11.188Z,72.91
2018-02-25T00:18:04.085Z,72.77
2018-02-25T00:19:03.991Z,72.96
2018-02-25T00:20:56.838Z,73.06
2018-02-25T00:21:56.694Z,72.96
2018-02-25T00:23:49.585Z,73.06
2018-02-25T00:24:49.438Z,72.87
2018-02-25T00:26:42.314Z,73.34
2018-02-25T00:27:42.192Z,73.25
2018-02-25T00:29:35.065Z,73.43
2018-02-25T00:30:34.940Z,73.34
2018-02-25T00:32:27.800Z,73.91
2018-02-25T00:33:27.695Z,73.43
2018-02-25T00:35:20.646Z,73.62
2018-02-25T00:36:20.442Z,74.10
2018-02-25T00:38:13.299Z,74.10
2018-02-25T00:39:13.188Z,74.38
2018-02-25T00:41:06.787Z,74.10
2018-02-25T00:42:06.646Z,74.00
2018-02-25T00:43:59.513Z,73.72
2018-02-25T00:44:59.400Z,73.72
2018-02-25T00:46:52.295Z,73.72
2018-02-25T00:47:52.149Z,73.81
2018-02-25T00:49:45.008Z,73.91
2018-02-25T00:50:44.899Z,74.10
2018-02-25T00:52:37.785Z,74.10
2018-02-25T00:53:37.665Z,74.19
2018-02-25T00:55:30.508Z,73.81
2018-02-25T00:56:30.416Z,74.19
2018-02-25T00:58:23.275Z,74.38
2018-02-25T00:59:23.156Z,74.47
2018-02-25T01:01:16.009Z,74.28
2018-02-25T01:02:15.905Z,74.19
2018-02-25T01:04:08.774Z,74.66
2018-02-25T01:05:08.660Z,74.47
2018-02-25T01:07:01.580Z,74.66
2018-02-25T01:08:01.401Z,74.57
2018-02-25T01:09:54.271Z,74.76
2018-02-25T01:10:54.153Z,74.66
2018-02-25T01:12:47.669Z,74.57
2018-02-25T01:13:47.410Z,74.38
2018-02-25T01:15:40.281Z,74.76
2018-02-25T01:16:40.165Z,74.95
2018-02-25T01:18:33.054Z,74.85
2018-02-25T01:19:32.921Z,74.85
2018-02-25T01:21:25.796Z,74.66
2018-02-25T01:22:25.682Z,74.95
2018-02-25T01:24:18.530Z,75.13
2018-02-25T01:25:18.427Z,75.13
2018-02-25T01:27:11.284Z,75.42
2018-02-25T01:28:11.168Z,74.95
2018-02-25T01:30:04.042Z,74.95
2018-02-25T01:31:03.924Z,74.95
2018-02-25T01:32:56.797Z,74.95
2018-02-25T01:33:56.681Z,75.23
2018-02-25T01:35:50.061Z,74.66
2018-02-25T01:36:49.919Z,74.76
2018-02-25T01:38:42.953Z,74.76
2018-02-25T01:39:42.770Z,75.13
2018-02-25T01:41:35.626Z,74.95
2018-02-25T01:42:35.513Z,75.23
2018-02-25T01:44:28.410Z,75.32
2018-02-25T01:45:28.288Z,75.42
2018-02-25T01:47:21.123Z,75.32
2018-02-25T01:48:21.018Z,75.23
2018-02-25T01:50:13.891Z,75.04
2018-02-25T01:51:13.772Z,74.85
2018-02-25T01:53:06.642Z,74.95
2018-02-25T01:54:06.516Z,74.95
2018-02-25T01:55:59.962Z,75.13
2018-02-25T01:56:59.308Z,75.13
2018-02-25T01:58:52.130Z,75.23
2018-02-25T01:59:52.023Z,75.13
2018-02-25T02:01:45.091Z,74.95
2018-02-25T02:02:44.974Z,75.32
2018-02-25T02:04:37.870Z,75.32
2018-02-25T02:05:37.727Z,75.13
2018-02-25T02:07:30.626Z,75.42
2018-02-25T02:08:30.464Z,75.32
2018-02-25T02:10:23.335Z,75.23
2018-02-25T02:11:23.225Z,75.51
2018-02-25T02:13:16.134Z,75.04
2018-02-25T02:14:15.977Z,75.32
2018-02-25T02:16:08.836Z,75.23
2018-02-25T02:17:08.742Z,75.32
2018-02-25T02:19:02.726Z,75.60
2018-02-25T02:20:02.501Z,75.51
2018-02-25T02:21:55.907Z,75.79
2018-02-25T02:22:55.759Z,75.79
2018-02-25T02:24:51.744Z,75.98
2018-02-25T02:25:51.484Z,76.26
2018-02-25T02:27:44.761Z,76.26
2018-02-25T02:28:44.640Z,76.17
2018-02-25T02:30:42.733Z,75.98
2018-02-25T02:31:42.332Z,76.45
2018-02-25T02:33:35.164Z,76.17
2018-02-25T02:34:35.052Z,77.11
2018-02-25T02:36:27.960Z,77.01
2018-02-25T02:37:27.796Z,76.26
2018-02-25T02:39:20.659Z,76.54
2018-02-25T02:40:20.546Z,76.54
2018-02-25T02:42:13.431Z,76.64
2018-02-25T02:43:13.298Z,76.73
2018-02-25T02:45:06.675Z,76.26
2018-02-25T02:46:06.556Z,76.73
2018-02-25T02:47:59.451Z,76.54
2018-02-25T02:48:59.316Z,76.54
2018-02-25T02:50:52.068Z,76.26
2018-02-25T02:51:51.957Z,76.35
2018-02-25T02:53:44.750Z,76.45
2018-02-25T02:54:44.611Z,76.64
2018-02-25T02:56:37.976Z,76.45
2018-02-25T02:57:37.862Z,76.54
2018-02-25T02:59:30.736Z,76.54
2018-02-25T03:00:30.625Z,77.11
2018-02-25T03:02:23.474Z,76.64
2018-02-25T03:03:23.374Z,76.73
2018-02-25T03:05:16.338Z,76.07
2018-02-25T03:06:16.214Z,76.45
2018-02-25T03:08:09.082Z,76.54
2018-02-25T03:09:08.968Z,76.45
2018-02-25T03:11:01.887Z,76.73
2018-02-25T03:12:01.711Z,76.73
2018-02-25T03:13:55.093Z,76.64
2018-02-25T03:14:55.100Z,76.35
2018-02-25T03:16:48.903Z,75.98
2018-02-25T03:17:48.754Z,76.26
2018-02-25T03:19:41.519Z,76.54
2018-02-25T03:20:41.427Z,76.64
2018-02-25T03:22:34.363Z,76.54
2018-02-25T03:23:34.143Z,76.54
2018-02-25T03:25:27.018Z,75.98
2018-02-25T03:26:26.897Z,76.07
2018-02-25T03:28:19.772Z,76.07
2018-02-25T03:29:19.648Z,75.89
2018-02-25T03:31:12.508Z,76.17
2018-02-25T03:32:12.391Z,76.07
2018-02-25T03:34:05.265Z,76.26
2018-02-25T03:35:05.149Z,76.26
2018-02-25T03:36:58.006Z,76.35
2018-02-25T03:37:57.893Z,76.45
2018-02-25T03:39:51.031Z,76.73
2018-02-25T03:40:50.657Z,76.79
2018-02-25T03:42:43.526Z,77.11
2018-02-25T03:43:43.387Z,77.07
2018-02-25T03:45:36.355Z,77.17
2018-02-25T03:46:36.138Z,77.36
2018-02-25T03:48:29.040Z,77.17
2018-02-25T03:49:28.899Z,77.26
2018-02-25T03:51:21.963Z,77.26
2018-02-25T03:52:21.840Z,77.11
2018-02-25T03:54:14.702Z,77.17
2018-02-25T03:55:14.596Z,77.26
2018-02-25T03:57:07.496Z,77.55
2018-02-25T03:58:07.352Z,78.20
2018-02-25T04:00:00.208Z,77.73
2018-02-25T04:01:00.094Z,78.11
2018-02-25T04:02:52.991Z,77.73
2018-02-25T04:03:52.840Z,78.02
2018-02-25T04:05:45.710Z,77.83
2018-02-25T04:06:45.597Z,77.92
2018-02-25T04:08:38.980Z,78.20
2018-02-25T04:09:38.856Z,78.20
2018-02-25T04:11:31.762Z,78.02
2018-02-25T04:12:31.635Z,78.49
2018-02-25T04:14:24.516Z,78.49
2018-02-25T04:15:24.353Z,78.39
2018-02-25T04:17:17.227Z,78.96
2018-02-25T04:18:17.164Z,78.67
2018-02-25T04:20:10.515Z,78.96
2018-02-25T04:21:10.422Z,79.43
2018-02-25T04:23:03.281Z,79.33
2018-02-25T04:24:03.182Z,79.33
2018-02-25T04:25:56.125Z,78.96
2018-02-25T04:26:56.204Z,79.43
2018-02-25T04:28:48.838Z,79.52
2018-02-25T04:29:48.723Z,79.33
2018-02-25T04:31:41.650Z,80.08
2018-02-25T04:32:41.463Z,79.99
2018-02-25T04:34:35.345Z,79.99
2018-02-25T04:35:35.249Z,79.90
2018-02-25T04:37:28.108Z,80.56
2018-02-25T04:38:28.010Z,80.46
2018-02-25T04:40:20.842Z,81.03
2018-02-25T04:41:20.741Z,80.93
2018-02-25T04:43:14.083Z,80.93
2018-02-25T04:44:13.482Z,81.03
2018-02-25T04:46:06.367Z,81.22
2018-02-25T04:47:06.233Z,80.74
2018-02-25T04:48:59.017Z,80.93
2018-02-25T04:49:58.901Z,81.03
2018-02-25T04:51:51.646Z,81.03
2018-02-25T04:52:51.559Z,80.56
2018-02-25T04:54:44.825Z,80.65
2018-02-25T04:55:44.702Z,80.65
2018-02-25T04:57:37.456Z,80.56
2018-02-25T04:58:37.336Z,80.56
2018-02-25T05:00:30.625Z,80.56
2018-02-25T05:01:30.491Z,80.37
2018-02-25T05:03:23.870Z,80.27
2018-02-25T05:04:23.757Z,80.65
2018-02-25T05:06:16.636Z,80.56
2018-02-25T05:07:16.505Z,80.56
2018-02-25T05:09:09.889Z,80.65
2018-02-25T05:10:09.775Z,80.37
2018-02-25T05:12:02.686Z,80.46
2018-02-25T05:13:02.564Z,80.46
2018-02-25T05:14:55.390Z,80.56
2018-02-25T05:15:55.351Z,81.41
2018-02-25T05:17:48.154Z,80.74
2018-02-25T05:18:48.015Z,80.46
2018-02-25T05:20:41.819Z,80.46
2018-02-25T05:21:41.696Z,80.74
2018-02-25T05:23:34.580Z,80.56
2018-02-25T05:24:34.448Z,80.46
2018-02-25T05:26:27.295Z,80.37
2018-02-25T05:27:27.209Z,80.56
2018-02-25T05:29:20.143Z,80.46
2018-02-25T05:30:19.932Z,80.74
2018-02-25T05:32:12.801Z,80.74
2018-02-25T05:33:12.691Z,80.56
2018-02-25T05:35:05.554Z,80.56
2018-02-25T05:36:05.429Z,80.74
2018-02-25T05:37:58.333Z,80.18
2018-02-25T05:38:58.244Z,80.08
2018-02-25T05:40:51.068Z,79.90
2018-02-25T05:41:50.933Z,80.37
2018-02-25T05:43:43.993Z,79.90
2018-02-25T05:44:43.892Z,79.80
2018-02-25T05:46:36.675Z,79.80
2018-02-25T05:47:36.539Z,80.27
2018-02-25T05:49:29.512Z,80.56
2018-02-25T05:50:29.462Z,80.56
2018-02-25T05:52:22.269Z,80.56
2018-02-25T05:53:22.158Z,80.46
2018-02-25T05:55:15.001Z,81.41
2018-02-25T05:56:14.887Z,81.12
2018-02-25T05:58:07.772Z,81.12
2018-02-25T05:59:07.643Z,80.93
2018-02-25T06:01:00.554Z,81.12
2018-02-25T06:02:00.410Z,81.22
2018-02-25T06:03:53.256Z,80.56
2018-02-25T06:04:53.137Z,81.41
2018-02-25T06:06:46.524Z,81.31
2018-02-25T06:07:46.397Z,80.74
2018-02-25T06:09:39.270Z,80.74
2018-02-25T06:10:39.144Z,80.65
2018-02-25T06:12:32.052Z,80.46
2018-02-25T06:13:31.959Z,80.65
2018-02-25T06:15:25.334Z,80.46
2018-02-25T06:16:24.667Z,80.46
2018-02-25T06:18:17.503Z,80.46
2018-02-25T06:19:17.398Z,81.31
2018-02-25T06:21:10.298Z,80.93
2018-02-25T06:22:10.143Z,80.74
2018-02-25T06:24:03.007Z,80.93
2018-02-25T06:25:02.897Z,81.22
2018-02-25T06:26:55.765Z,81.12
2018-02-25T06:27:55.646Z,81.12
2018-02-25T06:29:48.512Z,81.41
2018-02-25T06:30:48.413Z,81.22
2018-02-25T06:32:41.794Z,81.31
2018-02-25T06:33:41.658Z,81.12
2018-02-25T06:35:34.513Z,81.03
2018-02-25T06:36:34.443Z,81.41
2018-02-25T06:38:27.284Z,81.22
2018-02-25T06:39:27.147Z,80.37
2018-02-25T06:41:20.022Z,80.56
2018-02-25T06:42:19.909Z,80.46
2018-02-25T06:44:12.775Z,80.46
2018-02-25T06:45:12.649Z,80.74
2018-02-25T06:47:05.615Z,81.31
2018-02-25T06:48:05.510Z,80.46
2018-02-25T06:49:58.378Z,80.08
2018-02-25T06:50:58.262Z,79.90
2018-02-25T06:52:51.031Z,79.43
2018-02-25T06:53:50.904Z,79.52
2018-02-25T06:55:43.689Z,79.90
2018-02-25T06:56:43.546Z,79.52
2018-02-25T06:58:36.431Z,79.61
2018-02-25T06:59:36.324Z,79.43
2018-02-25T07:01:29.272Z,80.37
2018-02-25T07:02:29.183Z,80.18
2018-02-25T07:04:21.931Z,79.80
2018-02-25T07:05:21.797Z,79.80
2018-02-25T07:07:14.581Z,80.27
2018-02-25T07:08:14.444Z,80.37
2018-02-25T07:10:07.204Z,80.08
2018-02-25T07:11:07.099Z,79.80
2018-02-25T07:12:59.987Z,79.43
2018-02-25T07:13:59.784Z,79.61
2018-02-25T07:15:52.493Z,78.58
2018-02-25T07:16:52.394Z,78.67
2018-02-25T07:18:45.277Z,78.58
2018-02-25T07:19:45.156Z,78.67
2018-02-25T07:21:37.903Z,78.30
2018-02-25T07:22:37.783Z,78.20
2018-02-25T07:24:30.559Z,78.11
2018-02-25T07:25:30.436Z,78.20
2018-02-25T07:27:23.397Z,78.02
2018-02-25T07:28:23.277Z,78.11
2018-02-25T07:30:16.068Z,77.17
2018-02-25T07:31:15.925Z,77.64
2018-02-25T07:33:08.764Z,77.07
2018-02-25T07:34:08.575Z,76.79
2018-02-25T07:36:01.352Z,76.32
2018-02-25T07:37:01.222Z,76.32
2018-02-25T07:38:53.984Z,76.79
2018-02-25T07:39:53.882Z,76.60
2018-02-25T07:41:47.151Z,76.32
2018-02-25T07:42:47.030Z,76.41
2018-02-25T07:44:40.342Z,76.26
2018-02-25T07:45:40.189Z,75.98
2018-02-25T07:47:32.963Z,75.42
2018-02-25T07:48:32.838Z,75.79
2018-02-25T07:50:25.609Z,74.85
2018-02-25T07:51:25.537Z,75.13
2018-02-25T07:53:18.264Z,75.13
2018-02-25T07:54:18.126Z,75.04
2018-02-25T07:56:10.989Z,74.95
2018-02-25T07:57:10.909Z,74.95
2018-02-25T07:59:03.647Z,74.38
2018-02-25T08:00:03.538Z,73.81
2018-02-25T08:01:56.312Z,74.28
2018-02-25T08:02:56.190Z,74.00
2018-02-25T08:04:48.956Z,73.53
2018-02-25T08:05:48.830Z,73.72
2018-02-25T08:07:43.534Z,73.25
2018-02-25T08:08:43.435Z,73.43
2018-02-25T08:10:36.276Z,72.68
2018-02-25T08:11:36.086Z,73.15
2018-02-25T08:13:28.958Z,73.34
2018-02-25T08:14:28.911Z,73.25
2018-02-25T08:16:21.798Z,72.96
2018-02-25T08:17:21.561Z,72.77
2018-02-25T08:19:16.036Z,72.58
2018-02-25T08:20:15.856Z,72.40
2018-02-25T08:22:08.755Z,72.21
2018-02-25T08:23:08.572Z,72.11
2018-02-25T08:25:01.372Z,71.73
2018-02-25T08:26:01.292Z,71.64
2018-02-25T08:27:53.958Z,71.08
2018-02-25T08:28:53.790Z,70.51
2018-02-25T08:30:47.122Z,70.70
2018-02-25T08:31:47.105Z,70.42
2018-02-25T08:33:39.708Z,69.76
2018-02-25T08:34:39.629Z,69.76
2018-02-25T08:36:32.405Z,69.67
2018-02-25T08:37:32.394Z,69.85
2018-02-25T08:39:25.014Z,68.91
2018-02-25T08:40:24.891Z,69.00
2018-02-25T08:42:17.682Z,69.00
2018-02-25T08:43:17.535Z,69.38
2018-02-25T08:45:10.323Z,69.60
2018-02-25T08:46:10.185Z,69.70
2018-02-25T08:48:02.970Z,69.04
2018-02-25T08:49:02.861Z,68.66
2018-02-25T08:50:55.585Z,68.29
2018-02-25T08:51:55.483Z,67.72
2018-02-25T08:53:48.286Z,67.72
2018-02-25T08:54:48.125Z,67.53
2018-02-25T08:56:41.537Z,66.77
2018-02-25T08:57:41.384Z,66.96
2018-02-25T08:59:34.345Z,65.64
2018-02-25T09:00:34.138Z,65.26
2018-02-25T09:02:26.898Z,65.45
2018-02-25T09:03:26.823Z,66.30
2018-02-25T09:05:19.566Z,65.64
2018-02-25T09:06:19.436Z,65.17
2018-02-25T09:08:12.192Z,64.61
2018-02-25T09:09:12.087Z,64.42
2018-02-25T09:11:04.956Z,64.61
2018-02-25T09:12:04.830Z,64.70
2018-02-25T09:13:57.796Z,63.95
2018-02-25T09:14:57.676Z,63.85
2018-02-25T09:16:50.467Z,63.95
2018-02-25T09:17:50.349Z,63.47
2018-02-25T09:19:43.081Z,62.72
2018-02-25T09:20:42.980Z,61.87
2018-02-25T09:22:35.782Z,60.83
2018-02-25T09:23:35.627Z,59.51
2018-02-25T09:25:28.380Z,57.53
2018-02-25T09:26:28.289Z,57.15
2018-02-25T09:28:21.620Z,57.25
2018-02-25T09:29:21.457Z,56.77
2018-02-25T09:31:14.214Z,55.93
2018-02-25T09:32:14.091Z,56.12
2018-02-25T09:34:06.871Z,56.77
2018-02-25T09:35:06.738Z,57.43
2018-02-25T09:36:59.488Z,57.53
2018-02-25T09:37:59.386Z,58.29
2018-02-25T09:39:52.212Z,59.35
2018-02-25T09:40:52.030Z,59.17
2018-02-25T09:42:44.779Z,59.26
2018-02-25T09:43:44.668Z,59.54
2018-02-25T09:45:37.433Z,61.05
2018-02-25T09:46:37.322Z,60.39
2018-02-25T09:48:30.068Z,59.54
2018-02-25T09:49:29.979Z,59.83
2018-02-25T09:51:22.758Z,59.64
2018-02-25T09:52:22.611Z,59.17
2018-02-25T09:54:15.385Z,58.60
2018-02-25T09:55:15.261Z,58.31
2018-02-25T09:57:08.053Z,56.62
2018-02-25T09:58:07.913Z,55.77
2018-02-25T10:00:00.660Z,56.52
2018-02-25T10:01:00.565Z,56.15
2018-02-25T10:02:53.327Z,56.43
2018-02-25T10:03:53.207Z,56.34
2018-02-25T10:05:45.960Z,56.71
2018-02-25T10:06:45.861Z,57.50
2018-02-25T10:08:38.628Z,56.65
2018-02-25T10:09:38.507Z,55.89
2018-02-25T10:11:31.773Z,55.23
2018-02-25T10:12:31.648Z,55.20
2018-02-25T10:14:24.446Z,56.24
2018-02-25T10:15:24.349Z,57.37
2018-02-25T10:17:17.090Z,57.56
2018-02-25T10:18:16.945Z,56.90
2018-02-25T10:20:09.735Z,56.62
2018-02-25T10:21:09.595Z,55.96
2018-02-25T10:23:02.371Z,55.23
2018-02-25T10:24:02.256Z,54.26
2018-02-25T10:25:55.213Z,53.69
2018-02-25T10:26:55.016Z,53.25
2018-02-25T10:28:47.755Z,52.68
2018-02-25T10:29:47.643Z,52.68
2018-02-25T10:31:40.538Z,52.59
2018-02-25T10:32:40.441Z,52.49
2018-02-25T10:34:33.144Z,52.21
2018-02-25T10:35:33.039Z,52.68
2018-02-25T10:37:25.921Z,52.30
2018-02-25T10:38:25.794Z,52.30
2018-02-25T10:40:18.651Z,52.11
2018-02-25T10:41:18.533Z,52.11
2018-02-25T10:43:11.404Z,51.92
2018-02-25T10:44:11.283Z,52.59
2018-02-25T10:46:04.152Z,53.15
2018-02-25T10:47:04.036Z,53.81
2018-02-25T10:48:56.818Z,54.00
2018-02-25T10:49:56.676Z,54.47
2018-02-25T10:51:49.946Z,54.28
2018-02-25T10:52:49.837Z,54.19
2018-02-25T10:54:42.629Z,54.32
2018-02-25T10:55:42.491Z,52.89
2018-02-25T10:57:35.356Z,52.49
2018-02-25T10:58:35.227Z,52.33
2018-02-25T11:00:28.024Z,53.08
2018-02-25T11:01:27.894Z,52.21
2018-02-25T11:03:20.637Z,51.64
2018-02-25T11:04:20.530Z,51.73
2018-02-25T11:06:13.413Z,51.73
2018-02-25T11:07:13.272Z,52.02
2018-02-25T11:09:06.128Z,51.57
2018-02-25T11:10:06.104Z,50.53
2018-02-25T11:11:58.789Z,49.40
2018-02-25T11:12:58.681Z,48.93
2018-02-25T11:14:51.537Z,48.46
2018-02-25T11:15:51.416Z,48.27
2018-02-25T11:17:44.308Z,47.70
2018-02-25T11:18:44.177Z,47.80
2018-02-25T11:20:37.038Z,46.56
2018-02-25T11:21:36.937Z,46.56
2018-02-25T11:23:29.730Z,47.61
2018-02-25T11:24:29.585Z,47.42
2018-02-25T11:26:22.444Z,47.80
2018-02-25T11:27:22.329Z,48.27
2018-02-25T11:29:15.286Z,47.61
2018-02-25T11:30:15.201Z,48.36
2018-02-25T11:32:08.048Z,48.27
2018-02-25T11:33:07.926Z,48.24
2018-02-25T11:35:00.814Z,48.74
2018-02-25T11:36:00.818Z,48.90
2018-02-25T11:37:53.528Z,49.21
2018-02-25T11:38:53.474Z,49.21
2018-02-25T11:40:46.306Z,48.08
2018-02-25T11:41:46.218Z,47.51
2018-02-25T11:43:39.029Z,46.09
2018-02-25T11:44:38.918Z,45.55
2018-02-25T11:46:31.796Z,45.36
2018-02-25T11:47:31.682Z,45.64
2018-02-25T11:49:24.542Z,44.42
2018-02-25T11:50:24.422Z,44.89
2018-02-25T11:52:17.297Z,44.79
2018-02-25T11:53:17.170Z,44.58
2018-02-25T11:55:10.017Z,44.58
2018-02-25T11:56:09.924Z,45.53
2018-02-25T11:58:02.803Z,45.53
2018-02-25T11:59:02.667Z,46.85
2018-02-25T12:00:55.553Z,46.37
2018-02-25T12:01:55.426Z,46.00
2018-02-25T12:03:48.294Z,45.72
2018-02-25T12:04:48.183Z,45.62
2018-02-25T12:06:41.016Z,45.25
2018-02-25T12:07:40.922Z,45.43
2018-02-25T12:09:34.071Z,45.62
2018-02-25T12:10:33.668Z,45.72
2018-02-25T12:12:26.529Z,46.94
2018-02-25T12:13:26.416Z,47.13
2018-02-25T12:15:19.346Z,47.61
2018-02-25T12:16:19.166Z,48.27
2018-02-25T12:18:12.030Z,48.36
2018-02-25T12:19:11.917Z,47.80
2018-02-25T12:21:05.001Z,47.23
2018-02-25T12:22:04.868Z,47.23
2018-02-25T12:23:57.716Z,47.96
2018-02-25T12:24:57.623Z,48.52
2018-02-25T12:26:50.504Z,49.38
2018-02-25T12:27:50.368Z,49.85
2018-02-25T12:29:43.233Z,49.97
2018-02-25T12:30:43.153Z,49.40
2018-02-25T12:32:36.004Z,48.55
2018-02-25T12:33:35.876Z,47.80
2018-02-25T12:35:28.773Z,47.42
2018-02-25T12:36:28.653Z,47.04
2018-02-25T12:38:21.492Z,46.75
2018-02-25T12:39:21.366Z,47.04
2018-02-25T12:41:14.327Z,46.75
2018-02-25T12:42:14.214Z,46.75
2018-02-25T12:44:07.509Z,47.13
2018-02-25T12:45:07.378Z,47.61
2018-02-25T12:47:00.240Z,48.90
2018-02-25T12:48:00.127Z,49.19
2018-02-25T12:49:52.987Z,49.57
2018-02-25T12:50:52.877Z,49.47
2018-02-25T12:52:45.731Z,49.78
2018-02-25T12:53:45.622Z,49.78
2018-02-25T12:55:38.486Z,48.93
2018-02-25T12:56:38.865Z,48.83
2018-02-25T12:58:31.240Z,48.83
2018-02-25T12:59:31.126Z,49.02
2018-02-25T13:01:24.021Z,48.93
2018-02-25T13:02:23.877Z,48.46
2018-02-25T13:04:16.739Z,48.27
2018-02-25T13:05:16.621Z,48.43
2018-02-25T13:07:09.494Z,49.28
2018-02-25T13:08:09.378Z,49.76
2018-02-25T13:10:02.240Z,49.68
2018-02-25T13:11:02.120Z,49.78
2018-02-25T13:12:55.006Z,49.68
2018-02-25T13:13:54.866Z,49.78
2018-02-25T13:15:47.740Z,49.59
2018-02-25T13:16:47.676Z,49.68
2018-02-25T13:18:40.607Z,49.59
2018-02-25T13:19:40.367Z,49.40
2018-02-25T13:21:34.173Z,49.68
2018-02-25T13:22:34.253Z,49.21
2018-02-25T13:24:31.944Z,47.34
2018-02-25T13:25:31.820Z,46.94
2018-02-25T13:27:24.690Z,47.51
2018-02-25T13:28:24.557Z,47.70
2018-02-25T13:30:17.439Z,48.65
2018-02-25T13:31:17.304Z,49.02
2018-02-25T13:33:10.172Z,49.11
2018-02-25T13:34:10.059Z,49.28
2018-02-25T13:36:02.934Z,49.59
2018-02-25T13:37:02.808Z,50.53
2018-02-25T13:38:56.170Z,49.97
2018-02-25T13:39:56.064Z,48.74
2018-02-25T13:41:48.991Z,48.36
2018-02-25T13:42:48.821Z,48.93
2018-02-25T13:44:42.184Z,49.78
2018-02-25T13:45:42.075Z,49.68
2018-02-25T13:47:34.959Z,50.89
2018-02-25T13:48:34.845Z,50.53
2018-02-25T13:50:28.192Z,50.25
2018-02-25T13:51:28.095Z,49.78
2018-02-25T13:53:20.958Z,49.87
2018-02-25T13:54:20.837Z,49.78
2018-02-25T13:56:14.200Z,50.23
2018-02-25T13:57:14.099Z,50.42
2018-02-25T13:59:06.986Z,51.29
2018-02-25T14:00:06.847Z,51.54
2018-02-25T14:01:59.720Z,51.83
2018-02-25T14:02:59.602Z,52.02
2018-02-25T14:04:52.488Z,51.95
2018-02-25T14:05:52.351Z,51.39
2018-02-25T14:07:45.348Z,51.39
2018-02-25T14:08:45.211Z,51.01
2018-02-25T14:10:38.069Z,50.82
2018-02-25T14:11:37.963Z,51.95
2018-02-25T14:13:30.805Z,52.68
2018-02-25T14:14:30.719Z,53.44
2018-02-25T14:16:23.902Z,53.72
2018-02-25T14:17:23.768Z,54.28
2018-02-25T14:19:16.663Z,55.51
2018-02-25T14:20:16.523Z,55.70
2018-02-25T14:22:10.997Z,57.40
2018-02-25T14:23:10.584Z,57.31
2018-02-25T14:25:03.556Z,57.31
2018-02-25T14:26:03.438Z,57.21
2018-02-25T14:27:56.311Z,57.59
2018-02-25T14:28:56.192Z,57.59
2018-02-25T14:30:49.051Z,57.97
2018-02-25T14:31:48.939Z,58.15
2018-02-25T14:33:41.819Z,57.87
2018-02-25T14:34:41.683Z,58.44
2018-02-25T14:36:34.571Z,58.44
2018-02-25T14:37:34.438Z,57.97
2018-02-25T14:39:27.322Z,58.25
2018-02-25T14:40:27.191Z,58.25
2018-02-25T14:42:20.048Z,57.97
2018-02-25T14:43:19.930Z,58.06
2018-02-25T14:45:13.312Z,58.25
2018-02-25T14:46:13.195Z,58.53
2018-02-25T14:48:06.055Z,58.63
2018-02-25T14:49:05.961Z,58.63
2018-02-25T14:50:58.842Z,58.63
2018-02-25T14:51:58.698Z,58.72
2018-02-25T14:53:51.563Z,58.82
2018-02-25T14:54:51.454Z,59.19
2018-02-25T14:56:44.351Z,59.48
2018-02-25T14:57:44.196Z,59.38
2018-02-25T14:59:37.069Z,59.29
2018-02-25T15:00:36.949Z,59.00
2018-02-25T15:02:29.824Z,59.10
2018-02-25T15:03:29.702Z,59.38
2018-02-25T15:05:22.590Z,58.44
2018-02-25T15:06:22.452Z,58.53
2018-02-25T15:08:15.444Z,58.53
2018-02-25T15:09:15.315Z,58.53
2018-02-25T15:11:08.881Z,58.72
2018-02-25T15:12:08.756Z,59.29
2018-02-25T15:14:01.921Z,59.57
2018-02-25T15:15:01.524Z,59.19
2018-02-25T15:16:54.375Z,59.00
2018-02-25T15:17:54.281Z,59.19
2018-02-25T15:19:47.128Z,60.05
2018-02-25T15:20:47.028Z,60.24
2018-02-25T15:22:40.478Z,60.33
2018-02-25T15:23:40.280Z,60.24
2018-02-25T15:25:33.158Z,60.05
2018-02-25T15:26:33.102Z,60.14
2018-02-25T15:28:25.930Z,60.14
2018-02-25T15:29:25.777Z,60.42
2018-02-25T15:31:18.681Z,60.99
2018-02-25T15:32:18.547Z,60.80
2018-02-25T15:34:12.463Z,61.84
2018-02-25T15:35:12.310Z,62.59
2018-02-25T15:37:05.168Z,62.59
2018-02-25T15:38:05.045Z,62.50
2018-02-25T15:39:57.898Z,62.40
2018-02-25T15:40:57.793Z,62.21
2018-02-25T15:42:50.680Z,62.69
2018-02-25T15:43:50.545Z,62.59
2018-02-25T15:45:43.402Z,62.40
2018-02-25T15:46:43.302Z,62.69
2018-02-25T15:48:36.387Z,62.69
2018-02-25T15:49:36.293Z,62.31
2018-02-25T15:51:29.112Z,61.93
2018-02-25T15:52:29.009Z,62.50
2018-02-25T15:54:21.864Z,63.45
2018-02-25T15:55:21.749Z,64.29
2018-02-25T15:57:14.612Z,64.29
2018-02-25T15:58:14.501Z,64.11
2018-02-25T16:00:07.377Z,64.48
2018-02-25T16:01:07.258Z,64.58
2018-02-25T16:03:01.065Z,64.95
2018-02-25T16:04:00.918Z,65.48
2018-02-25T16:05:53.797Z,65.39
2018-02-25T16:06:53.663Z,65.20
2018-02-25T16:08:46.530Z,66.05
2018-02-25T16:09:46.416Z,66.37
2018-02-25T16:11:39.376Z,66.09
2018-02-25T16:12:39.186Z,65.80
2018-02-25T16:14:32.101Z,66.09
2018-02-25T16:15:31.923Z,66.05
2018-02-25T16:17:24.821Z,66.37
2018-02-25T16:18:24.704Z,66.34
2018-02-25T16:20:17.522Z,66.62
2018-02-25T16:21:17.416Z,67.03
2018-02-25T16:23:10.288Z,67.09
2018-02-25T16:24:10.187Z,67.57
2018-02-25T16:26:03.031Z,68.13
2018-02-25T16:27:02.907Z,67.85
2018-02-25T16:28:55.788Z,67.85
2018-02-25T16:29:55.658Z,68.41
2018-02-25T16:31:49.035Z,68.51
2018-02-25T16:32:48.928Z,68.70
2018-02-25T16:34:42.325Z,68.41
2018-02-25T16:35:42.188Z,68.23
2018-02-25T16:37:35.053Z,69.07
2018-02-25T16:38:34.937Z,68.88
2018-02-25T16:40:27.857Z,68.98
2018-02-25T16:41:27.705Z,69.35
2018-02-25T16:43:20.536Z,70.11
2018-02-25T16:44:20.440Z,70.02
2018-02-25T16:46:13.313Z,70.58
2018-02-25T16:47:13.192Z,71.72
2018-02-25T16:49:06.048Z,72.38
2018-02-25T16:50:05.937Z,73.22
2018-02-25T16:51:59.262Z,73.32
2018-02-25T16:52:58.679Z,73.69
2018-02-25T16:54:51.544Z,74.83
2018-02-25T16:55:51.434Z,75.40
2018-02-25T16:57:44.524Z,75.87
2018-02-25T16:58:44.400Z,76.15
2018-02-25T17:00:37.290Z,76.34
2018-02-25T17:01:37.140Z,77.00
2018-02-25T17:03:30.033Z,77.75
2018-02-25T17:04:29.891Z,77.47
2018-02-25T17:06:22.742Z,78.23
2018-02-25T17:07:22.643Z,78.60
2018-02-25T17:09:15.557Z,79.17
2018-02-25T17:10:15.566Z,79.17
2018-02-25T17:12:08.651Z,78.98
2018-02-25T17:13:08.542Z,79.46
2018-02-25T17:15:01.473Z,79.36
2018-02-25T17:16:01.301Z,79.83
2018-02-25T17:17:54.197Z,80.40
2018-02-25T17:18:54.130Z,80.30
2018-02-25T17:20:46.949Z,80.68
2018-02-25T17:21:46.806Z,80.77
2018-02-25T17:23:42.190Z,80.87
2018-02-25T17:24:41.084Z,80.58
2018-02-25T17:26:34.914Z,81.05
2018-02-25T17:27:34.795Z,81.15
2018-02-25T17:29:27.731Z,81.15
2018-02-25T17:30:27.619Z,81.24
2018-02-25T17:32:20.565Z,81.62
2018-02-25T17:33:20.427Z,81.15
2018-02-25T17:35:13.804Z,81.34
2018-02-25T17:36:13.112Z,81.53
2018-02-25T17:38:06.021Z,81.43
2018-02-25T17:39:05.848Z,81.81
2018-02-25T17:40:58.739Z,82.19
2018-02-25T17:41:58.598Z,82.10
2018-02-25T17:43:51.494Z,82.57
2018-02-25T17:44:51.359Z,82.28
2018-02-25T17:46:44.248Z,82.47
2018-02-25T17:47:44.100Z,82.47
2018-02-25T17:49:36.989Z,82.47
2018-02-25T17:50:36.848Z,82.28
2018-02-25T17:52:29.702Z,82.10
2018-02-25T17:53:29.600Z,82.57
2018-02-25T17:55:24.521Z,82.28
2018-02-25T17:56:22.960Z,82.47
2018-02-25T17:58:15.824Z,82.47
2018-02-25T17:59:15.719Z,82.95
2018-02-25T18:01:08.913Z,82.28
2018-02-25T18:02:08.781Z,82.19
2018-02-25T18:04:01.634Z,82.66
2018-02-25T18:05:01.522Z,82.47
2018-02-25T18:06:54.298Z,82.95
2018-02-25T18:07:54.189Z,82.85
2018-02-25T18:09:47.184Z,82.66
2018-02-25T18:10:47.015Z,82.57
2018-02-25T18:12:39.908Z,83.61
2018-02-25T18:13:39.771Z,83.70
2018-02-25T18:15:32.788Z,83.98
2018-02-25T18:16:32.513Z,84.08
2018-02-25T18:18:25.384Z,84.08
2018-02-25T18:19:25.274Z,83.89
2018-02-25T18:21:18.122Z,84.45
2018-02-25T18:22:18.014Z,84.45
2018-02-25T18:24:11.070Z,84.08
2018-02-25T18:25:11.338Z,84.45
2018-02-25T18:27:03.636Z,83.80
2018-02-25T18:28:03.663Z,83.70
2018-02-25T18:29:56.396Z,83.89
2018-02-25T18:30:56.276Z,83.89
2018-02-25T18:32:49.133Z,83.80